Terminal Aerodrome Forecast
Issued by NWS Wilmington, OH

Current Version | Previous Version | Graphics & Text | Print | Product List | Glossary On
Versions: 1 2 3 4 5 6 7 8 9 10 11 12 13 14 15 16 17 18 19
000
FTUS41 KILN 302300
TAFCMH
TAF
KCMH 302340Z 0100/0124 20006KT P6SM OVC150
     FM010300 24006KT P6SM SCT100
     FM010900 26005KT 5SM BR SKC
      TEMPO 0109/0113 2SM BR FEW004
     FM011300 29007KT P6SM SCT035=

USA.gov is the U.S. government's official web portal to all federal, state and local government web resources and services.